sensor_id;sensor_type;location;lat;lon;timestamp;temperature;humidity
68990;DHT22;56046;47.270;11.368;2022-11-15T00:00:14;5.89;73.15
68990;DHT22;56046;47.270;11.368;2022-11-15T00:02:40;5.94;73.04
68990;DHT22;56046;47.270;11.368;2022-11-15T00:05:05;6.00;72.93
68990;DHT22;56046;47.270;11.368;2022-11-15T00:07:31;6.03;72.83
68990;DHT22;56046;47.270;11.368;2022-11-15T00:09:56;5.94;72.96
68990;DHT22;56046;47.270;11.368;2022-11-15T00:12:22;5.94;73.01
68990;DHT22;56046;47.270;11.368;2022-11-15T00:14:47;5.93;72.95
68990;DHT22;56046;47.270;11.368;2022-11-15T00:17:13;5.96;73.01
68990;DHT22;56046;47.270;11.368;2022-11-15T00:19:38;5.93;72.98
68990;DHT22;56046;47.270;11.368;2022-11-15T00:22:04;5.93;72.84
68990;DHT22;56046;47.270;11.368;2022-11-15T00:24:29;5.90;73.05
68990;DHT22;56046;47.270;11.368;2022-11-15T00:26:55;5.83;73.20
68990;DHT22;56046;47.270;11.368;2022-11-15T00:29:26;5.80;73.19
68990;DHT22;56046;47.270;11.368;2022-11-15T00:31:52;5.83;73.03
68990;DHT22;56046;47.270;11.368;2022-11-15T00:34:18;5.90;72.92
68990;DHT22;56046;47.270;11.368;2022-11-15T00:36:43;5.82;73.11
68990;DHT22;56046;47.270;11.368;2022-11-15T00:39:08;5.92;72.97
68990;DHT22;56046;47.270;11.368;2022-11-15T00:41:34;5.86;73.01
68990;DHT22;56046;47.270;11.368;2022-11-15T00:43:59;5.82;73.12
68990;DHT22;56046;47.270;11.368;2022-11-15T00:46:25;5.77;73.24
68990;DHT22;56046;47.270;11.368;2022-11-15T00:48:50;5.75;73.19
68990;DHT22;56046;47.270;11.368;2022-11-15T00:51:16;5.77;73.16
68990;DHT22;56046;47.270;11.368;2022-11-15T00:53:41;5.83;72.99
68990;DHT22;56046;47.270;11.368;2022-11-15T00:56:07;5.77;73.11
68990;DHT22;56046;47.270;11.368;2022-11-15T00:58:32;5.79;72.93
68990;DHT22;56046;47.270;11.368;2022-11-15T01:01:12;5.70;73.31
68990;DHT22;56046;47.270;11.368;2022-11-15T01:03:39;5.69;73.16
68990;DHT22;56046;47.270;11.368;2022-11-15T01:06:06;5.58;73.61
68990;DHT22;56046;47.270;11.368;2022-11-15T01:08:32;5.69;73.18
68990;DHT22;56046;47.270;11.368;2022-11-15T01:11:06;5.67;73.26
68990;DHT22;56046;47.270;11.368;2022-11-15T01:13:33;5.59;73.59
68990;DHT22;56046;47.270;11.368;2022-11-15T01:16:06;5.46;74.16
68990;DHT22;56046;47.270;11.368;2022-11-15T01:18:31;5.49;74.30
68990;DHT22;56046;47.270;11.368;2022-11-15T01:20:56;5.32;74.72
68990;DHT22;56046;47.270;11.368;2022-11-15T01:23:22;5.28;75.09
68990;DHT22;56046;47.270;11.368;2022-11-15T01:25:47;5.31;74.85
68990;DHT22;56046;47.270;11.368;2022-11-15T01:28:13;5.28;74.52
68990;DHT22;56046;47.270;11.368;2022-11-15T01:30:38;5.31;74.27
68990;DHT22;56046;47.270;11.368;2022-11-15T01:33:04;5.27;74.44
68990;DHT22;56046;47.270;11.368;2022-11-15T01:35:29;5.41;73.91
68990;DHT22;56046;47.270;11.368;2022-11-15T01:37:54;5.41;73.82
68990;DHT22;56046;47.270;11.368;2022-11-15T01:40:20;5.42;73.75
68990;DHT22;56046;47.270;11.368;2022-11-15T01:42:45;5.37;73.61
68990;DHT22;56046;47.270;11.368;2022-11-15T01:45:15;5.26;74.23
68990;DHT22;56046;47.270;11.368;2022-11-15T01:47:44;5.21;74.48
68990;DHT22;56046;47.270;11.368;2022-11-15T01:50:12;5.20;74.53
68990;DHT22;56046;47.270;11.368;2022-11-15T01:52:39;5.16;74.83
68990;DHT22;56046;47.270;11.368;2022-11-15T01:55:26;5.23;74.84
68990;DHT22;56046;47.270;11.368;2022-11-15T01:57:59;5.23;74.78
68990;DHT22;56046;47.270;11.368;2022-11-15T02:00:25;5.32;74.39
68990;DHT22;56046;47.270;11.368;2022-11-15T02:02:50;5.44;74.01
68990;DHT22;56046;47.270;11.368;2022-11-15T02:05:16;5.44;73.88
68990;DHT22;56046;47.270;11.368;2022-11-15T02:07:42;5.41;74.06
68990;DHT22;56046;47.270;11.368;2022-11-15T02:10:18;5.34;74.21
68990;DHT22;56046;47.270;11.368;2022-11-15T02:12:44;5.30;74.67
68990;DHT22;56046;47.270;11.368;2022-11-15T02:15:10;5.23;75.10
68990;DHT22;56046;47.270;11.368;2022-11-15T02:17:44;5.20;75.34
68990;DHT22;56046;47.270;11.368;2022-11-15T02:31:45;4.77;76.65
68990;DHT22;56046;47.270;11.368;2022-11-15T02:34:35;4.62;76.92
68990;DHT22;56046;47.270;11.368;2022-11-15T02:37:23;4.51;77.27
68990;DHT22;56046;47.270;11.368;2022-11-15T02:42:26;4.37;78.38
68990;DHT22;56046;47.270;11.368;2022-11-15T02:45:17;4.31;78.71
68990;DHT22;56046;47.270;11.368;2022-11-15T02:47:46;4.28;78.98
68990;DHT22;56046;47.270;11.368;2022-11-15T02:50:20;4.35;78.79
68990;DHT22;56046;47.270;11.368;2022-11-15T02:52:48;4.27;79.20
68990;DHT22;56046;47.270;11.368;2022-11-15T03:11:29;4.24;79.13
68990;DHT22;56046;47.270;11.368;2022-11-15T03:22:00;3.85;79.50
68990;DHT22;56046;47.270;11.368;2022-11-15T03:24:29;3.85;79.79
68990;DHT22;56046;47.270;11.368;2022-11-15T03:26:55;3.83;80.15
68990;DHT22;56046;47.270;11.368;2022-11-15T03:29:29;3.72;80.32
68990;DHT22;56046;47.270;11.368;2022-11-15T03:32:02;3.52;81.56
68990;DHT22;56046;47.270;11.368;2022-11-15T03:34:53;3.39;81.99
68990;DHT22;56046;47.270;11.368;2022-11-15T03:37:17;3.32;82.74
68990;DHT22;56046;47.270;11.368;2022-11-15T03:39:46;3.41;82.57
68990;DHT22;56046;47.270;11.368;2022-11-15T03:42:30;3.42;82.48
68990;DHT22;56046;47.270;11.368;2022-11-15T03:47:34;3.32;82.66
68990;DHT22;56046;47.270;11.368;2022-11-15T03:50:13;3.38;82.16
68990;DHT22;56046;47.270;11.368;2022-11-15T03:52:40;3.43;82.09
68990;DHT22;56046;47.270;11.368;2022-11-15T03:55:10;3.48;81.54
68990;DHT22;56046;47.270;11.368;2022-11-15T03:57:35;3.55;81.03
68990;DHT22;56046;47.270;11.368;2022-11-15T04:00:01;3.65;81.09
68990;DHT22;56046;47.270;11.368;2022-11-15T04:02:26;3.76;80.69
68990;DHT22;56046;47.270;11.368;2022-11-15T04:04:51;3.91;79.83
68990;DHT22;56046;47.270;11.368;2022-11-15T04:07:17;3.94;79.49
68990;DHT22;56046;47.270;11.368;2022-11-15T04:09:43;4.06;78.97
68990;DHT22;56046;47.270;11.368;2022-11-15T04:12:26;4.04;79.13
68990;DHT22;56046;47.270;11.368;2022-11-15T04:17:32;3.98;79.30
68990;DHT22;56046;47.270;11.368;2022-11-15T04:19:57;3.96;79.56
68990;DHT22;56046;47.270;11.368;2022-11-15T04:22:41;3.96;79.69
68990;DHT22;56046;47.270;11.368;2022-11-15T04:25:25;3.79;80.12
68990;DHT22;56046;47.270;11.368;2022-11-15T04:27:51;3.48;81.53
68990;DHT22;56046;47.270;11.368;2022-11-15T04:30:16;3.48;81.93
68990;DHT22;56046;47.270;11.368;2022-11-15T04:32:42;3.54;81.70
68990;DHT22;56046;47.270;11.368;2022-11-15T04:35:07;3.48;81.87
68990;DHT22;56046;47.270;11.368;2022-11-15T04:37:33;3.43;81.77
68990;DHT22;56046;47.270;11.368;2022-11-15T04:39:58;3.51;81.73
68990;DHT22;56046;47.270;11.368;2022-11-15T04:42:24;3.52;81.58
68990;DHT22;56046;47.270;11.368;2022-11-15T04:44:49;3.55;81.50
68990;DHT22;56046;47.270;11.368;2022-11-15T04:47:14;3.58;81.13
68990;DHT22;56046;47.270;11.368;2022-11-15T04:49:40;3.56;80.89
68990;DHT22;56046;47.270;11.368;2022-11-15T04:52:05;3.65;80.76
68990;DHT22;56046;47.270;11.368;2022-11-15T04:54:31;3.79;80.16
68990;DHT22;56046;47.270;11.368;2022-11-15T04:56:56;3.86;79.79
68990;DHT22;56046;47.270;11.368;2022-11-15T04:59:21;3.90;79.37
68990;DHT22;56046;47.270;11.368;2022-11-15T05:01:47;3.85;79.47
68990;DHT22;56046;47.270;11.368;2022-11-15T05:04:12;3.73;79.67
68990;DHT22;56046;47.270;11.368;2022-11-15T05:06:44;3.54;80.21
68990;DHT22;56046;47.270;11.368;2022-11-15T05:09:09;3.38;80.93
68990;DHT22;56046;47.270;11.368;2022-11-15T05:11:35;3.48;81.54
68990;DHT22;56046;47.270;11.368;2022-11-15T05:14:00;3.48;81.31
68990;DHT22;56046;47.270;11.368;2022-11-15T05:16:26;3.42;81.40
68990;DHT22;56046;47.270;11.368;2022-11-15T05:18:54;3.38;81.80
68990;DHT22;56046;47.270;11.368;2022-11-15T05:21:20;3.36;81.88
68990;DHT22;56046;47.270;11.368;2022-11-15T05:23:45;3.32;81.95
68990;DHT22;56046;47.270;11.368;2022-11-15T05:26:12;3.49;81.55
68990;DHT22;56046;47.270;11.368;2022-11-15T05:28:37;3.63;81.01
68990;DHT22;56046;47.270;11.368;2022-11-15T05:31:05;3.76;80.19
68990;DHT22;56046;47.270;11.368;2022-11-15T05:33:31;3.65;80.09
68990;DHT22;56046;47.270;11.368;2022-11-15T05:36:05;3.58;80.30
68990;DHT22;56046;47.270;11.368;2022-11-15T05:38:33;3.49;80.67
68990;DHT22;56046;47.270;11.368;2022-11-15T05:41:00;3.39;81.27
68990;DHT22;56046;47.270;11.368;2022-11-15T05:43:26;3.45;81.12
68990;DHT22;56046;47.270;11.368;2022-11-15T05:45:52;3.69;80.29
68990;DHT22;56046;47.270;11.368;2022-11-15T05:48:18;3.80;79.42
68990;DHT22;56046;47.270;11.368;2022-11-15T05:50:46;3.83;79.19
68990;DHT22;56046;47.270;11.368;2022-11-15T05:53:13;3.83;79.27
68990;DHT22;56046;47.270;11.368;2022-11-15T05:55:40;3.85;79.33
68990;DHT22;56046;47.270;11.368;2022-11-15T05:58:06;3.75;79.56
68990;DHT22;56046;47.270;11.368;2022-11-15T06:00:32;3.60;79.98
68990;DHT22;56046;47.270;11.368;2022-11-15T06:02:58;3.31;80.83
68990;DHT22;56046;47.270;11.368;2022-11-15T06:05:23;3.25;81.01
68990;DHT22;56046;47.270;11.368;2022-11-15T06:07:49;3.22;81.57
68990;DHT22;56046;47.270;11.368;2022-11-15T06:10:14;2.97;82.49
68990;DHT22;56046;47.270;11.368;2022-11-15T06:12:40;3.00;82.95
68990;DHT22;56046;47.270;11.368;2022-11-15T06:15:06;3.07;82.56
68990;DHT22;56046;47.270;11.368;2022-11-15T06:17:31;3.05;82.86
68990;DHT22;56046;47.270;11.368;2022-11-15T06:19:56;3.07;82.48
68990;DHT22;56046;47.270;11.368;2022-11-15T06:22:22;3.15;82.28
68990;DHT22;56046;47.270;11.368;2022-11-15T06:24:47;3.27;81.68
68990;DHT22;56046;47.270;11.368;2022-11-15T06:27:13;3.45;80.85
68990;DHT22;56046;47.270;11.368;2022-11-15T06:29:39;3.52;80.35
68990;DHT22;56046;47.270;11.368;2022-11-15T06:32:04;3.58;80.14
68990;DHT22;56046;47.270;11.368;2022-11-15T06:34:30;3.75;79.80
68990;DHT22;56046;47.270;11.368;2022-11-15T06:36:55;3.85;79.15
68990;DHT22;56046;47.270;11.368;2022-11-15T06:39:21;3.91;78.76
68990;DHT22;56046;47.270;11.368;2022-11-15T06:41:46;4.00;78.19
68990;DHT22;56046;47.270;11.368;2022-11-15T06:44:11;4.01;78.09
68990;DHT22;56046;47.270;11.368;2022-11-15T06:46:37;4.04;77.90
68990;DHT22;56046;47.270;11.368;2022-11-15T06:49:02;4.04;78.16
68990;DHT22;56046;47.270;11.368;2022-11-15T06:51:28;4.00;78.34
68990;DHT22;56046;47.270;11.368;2022-11-15T06:53:54;3.97;78.58
68990;DHT22;56046;47.270;11.368;2022-11-15T06:56:19;3.90;78.75
68990;DHT22;56046;47.270;11.368;2022-11-15T06:58:44;3.87;79.15
68990;DHT22;56046;47.270;11.368;2022-11-15T07:01:12;3.87;79.33
68990;DHT22;56046;47.270;11.368;2022-11-15T07:03:39;3.87;79.28
68990;DHT22;56046;47.270;11.368;2022-11-15T07:06:06;3.72;79.67
68990;DHT22;56046;47.270;11.368;2022-11-15T07:08:32;3.66;79.98
68990;DHT22;56046;47.270;11.368;2022-11-15T07:10:59;3.60;80.10
68990;DHT22;56046;47.270;11.368;2022-11-15T07:13:26;3.56;80.49
68990;DHT22;56046;47.270;11.368;2022-11-15T07:15:52;3.72;80.06
68990;DHT22;56046;47.270;11.368;2022-11-15T07:18:17;3.86;79.68
68990;DHT22;56046;47.270;11.368;2022-11-15T07:20:43;4.08;79.03
68990;DHT22;56046;47.270;11.368;2022-11-15T07:23:08;4.11;78.82
68990;DHT22;56046;47.270;11.368;2022-11-15T07:25:34;4.28;78.46
68990;DHT22;56046;47.270;11.368;2022-11-15T07:28:00;4.34;78.33
68990;DHT22;56046;47.270;11.368;2022-11-15T07:30:26;4.40;77.79
68990;DHT22;56046;47.270;11.368;2022-11-15T07:32:53;4.58;77.70
68990;DHT22;56046;47.270;11.368;2022-11-15T07:35:19;4.75;77.06
68990;DHT22;56046;47.270;11.368;2022-11-15T07:37:55;4.90;76.60
68990;DHT22;56046;47.270;11.368;2022-11-15T07:40:21;4.99;76.14
68990;DHT22;56046;47.270;11.368;2022-11-15T07:42:46;5.11;75.60
68990;DHT22;56046;47.270;11.368;2022-11-15T07:45:18;5.21;75.39
68990;DHT22;56046;47.270;11.368;2022-11-15T07:47:48;5.41;74.80
68990;DHT22;56046;47.270;11.368;2022-11-15T07:50:14;5.52;74.04
68990;DHT22;56046;47.270;11.368;2022-11-15T07:52:39;5.67;73.51
68990;DHT22;56046;47.270;11.368;2022-11-15T07:55:05;5.77;72.99
68990;DHT22;56046;47.270;11.368;2022-11-15T07:57:31;5.87;72.87
68990;DHT22;56046;47.270;11.368;2022-11-15T07:59:56;5.96;72.82
68990;DHT22;56046;47.270;11.368;2022-11-15T08:02:22;6.02;72.51
68990;DHT22;56046;47.270;11.368;2022-11-15T08:04:47;6.09;72.52
68990;DHT22;56046;47.270;11.368;2022-11-15T08:07:13;6.09;72.25
68990;DHT22;56046;47.270;11.368;2022-11-15T08:09:38;6.03;72.41
68990;DHT22;56046;47.270;11.368;2022-11-15T08:12:04;6.04;72.21
68990;DHT22;56046;47.270;11.368;2022-11-15T08:14:29;6.10;72.09
68990;DHT22;56046;47.270;11.368;2022-11-15T08:16:55;6.06;72.06
68990;DHT22;56046;47.270;11.368;2022-11-15T08:19:20;6.11;71.56
68990;DHT22;56046;47.270;11.368;2022-11-15T08:21:45;6.27;71.06
68990;DHT22;56046;47.270;11.368;2022-11-15T08:24:11;6.34;70.75
68990;DHT22;56046;47.270;11.368;2022-11-15T08:26:37;6.38;70.92
68990;DHT22;56046;47.270;11.368;2022-11-15T08:29:02;6.40;70.32
68990;DHT22;56046;47.270;11.368;2022-11-15T08:31:28;6.48;70.05
68990;DHT22;56046;47.270;11.368;2022-11-15T08:33:53;6.45;69.89
68990;DHT22;56046;47.270;11.368;2022-11-15T08:36:19;6.67;69.78
68990;DHT22;56046;47.270;11.368;2022-11-15T08:38:45;6.83;69.91
68990;DHT22;56046;47.270;11.368;2022-11-15T08:41:13;6.76;69.16
68990;DHT22;56046;47.270;11.368;2022-11-15T08:43:41;6.69;69.69
68990;DHT22;56046;47.270;11.368;2022-11-15T08:46:12;6.83;69.59
68990;DHT22;56046;47.270;11.368;2022-11-15T08:48:38;6.86;69.56
68990;DHT22;56046;47.270;11.368;2022-11-15T08:51:04;6.96;69.56
68990;DHT22;56046;47.270;11.368;2022-11-15T08:53:29;7.01;68.98
68990;DHT22;56046;47.270;11.368;2022-11-15T08:55:55;7.06;69.02
68990;DHT22;56046;47.270;11.368;2022-11-15T08:58:20;7.25;69.01
68990;DHT22;56046;47.270;11.368;2022-11-15T09:00:46;7.34;68.01
68990;DHT22;56046;47.270;11.368;2022-11-15T09:03:11;7.48;67.97
68990;DHT22;56046;47.270;11.368;2022-11-15T09:05:37;7.68;66.60
68990;DHT22;56046;47.270;11.368;2022-11-15T09:08:03;7.83;66.17
68990;DHT22;56046;47.270;11.368;2022-11-15T09:10:28;7.93;65.26
68990;DHT22;56046;47.270;11.368;2022-11-15T09:12:56;8.20;65.19
68990;DHT22;56046;47.270;11.368;2022-11-15T09:15:22;8.21;65.20
68990;DHT22;56046;47.270;11.368;2022-11-15T09:17:47;8.30;65.07
68990;DHT22;56046;47.270;11.368;2022-11-15T09:20:13;8.37;64.29
68990;DHT22;56046;47.270;11.368;2022-11-15T09:22:38;8.44;64.10
68990;DHT22;56046;47.270;11.368;2022-11-15T09:25:04;8.47;63.72
68990;DHT22;56046;47.270;11.368;2022-11-15T09:27:30;8.45;63.19
68990;DHT22;56046;47.270;11.368;2022-11-15T09:29:56;8.52;63.53
68990;DHT22;56046;47.270;11.368;2022-11-15T09:32:22;8.61;63.03
68990;DHT22;56046;47.270;11.368;2022-11-15T09:34:49;8.72;63.06
68990;DHT22;56046;47.270;11.368;2022-11-15T09:37:14;8.89;63.19
68990;DHT22;56046;47.270;11.368;2022-11-15T09:39:40;8.99;62.65
68990;DHT22;56046;47.270;11.368;2022-11-15T09:50:48;9.59;61.47
68990;DHT22;56046;47.270;11.368;2022-11-15T09:53:21;9.67;60.32
68990;DHT22;56046;47.270;11.368;2022-11-15T09:58:30;9.81;58.51
68990;DHT22;56046;47.270;11.368;2022-11-15T10:00:59;9.89;58.29
68990;DHT22;56046;47.270;11.368;2022-11-15T10:03:37;9.89;58.81
68990;DHT22;56046;47.270;11.368;2022-11-15T10:06:05;10.14;58.66
68990;DHT22;56046;47.270;11.368;2022-11-15T10:08:40;10.30;59.24
68990;DHT22;56046;47.270;11.368;2022-11-15T10:11:17;10.26;58.42
68990;DHT22;56046;47.270;11.368;2022-11-15T10:13:45;10.37;58.54
68990;DHT22;56046;47.270;11.368;2022-11-15T10:16:33;10.47;58.62
68990;DHT22;56046;47.270;11.368;2022-11-15T10:24:26;10.71;56.83
68990;DHT22;56046;47.270;11.368;2022-11-15T10:26:54;10.71;56.20
68990;DHT22;56046;47.270;11.368;2022-11-15T10:29:20;10.79;56.24
68990;DHT22;56046;47.270;11.368;2022-11-15T10:31:47;10.76;56.07
68990;DHT22;56046;47.270;11.368;2022-11-15T10:34:15;10.83;55.74
68990;DHT22;56046;47.270;11.368;2022-11-15T10:39:18;10.98;55.05
68990;DHT22;56046;47.270;11.368;2022-11-15T10:41:44;10.99;54.38
68990;DHT22;56046;47.270;11.368;2022-11-15T10:44:30;11.12;53.79
68990;DHT22;56046;47.270;11.368;2022-11-15T10:49:29;11.03;54.07
68990;DHT22;56046;47.270;11.368;2022-11-15T10:54:36;11.27;54.64
68990;DHT22;56046;47.270;11.368;2022-11-15T10:57:25;11.30;55.41
68990;DHT22;56046;47.270;11.368;2022-11-15T10:59:54;11.41;54.96
68990;DHT22;56046;47.270;11.368;2022-11-15T11:02:36;11.54;54.73
68990;DHT22;56046;47.270;11.368;2022-11-15T11:05:05;11.54;54.62
68990;DHT22;56046;47.270;11.368;2022-11-15T11:07:34;11.58;54.10
68990;DHT22;56046;47.270;11.368;2022-11-15T11:10:17;11.61;53.52
68990;DHT22;56046;47.270;11.368;2022-11-15T11:12:43;11.73;53.68
68990;DHT22;56046;47.270;11.368;2022-11-15T11:15:14;11.70;53.29
68990;DHT22;56046;47.270;11.368;2022-11-15T11:20:51;11.78;53.50
68990;DHT22;56046;47.270;11.368;2022-11-15T11:26:26;12.06;53.30
68990;DHT22;56046;47.270;11.368;2022-11-15T11:29:25;11.93;53.11
68990;DHT22;56046;47.270;11.368;2022-11-15T11:43:11;12.16;51.08
68990;DHT22;56046;47.270;11.368;2022-11-15T11:51:19;12.49;50.84
68990;DHT22;56046;47.270;11.368;2022-11-15T11:53:48;12.61;50.35
68990;DHT22;56046;47.270;11.368;2022-11-15T11:56:36;12.60;49.91
68990;DHT22;56046;47.270;11.368;2022-11-15T11:59:19;12.68;50.06
68990;DHT22;56046;47.270;11.368;2022-11-15T12:01:46;12.54;49.59
68990;DHT22;56046;47.270;11.368;2022-11-15T12:04:16;12.85;49.74
68990;DHT22;56046;47.270;11.368;2022-11-15T12:09:21;12.87;49.58
68990;DHT22;56046;47.270;11.368;2022-11-15T12:12:04;13.11;50.02
68990;DHT22;56046;47.270;11.368;2022-11-15T12:17:01;13.01;50.22
68990;DHT22;56046;47.270;11.368;2022-11-15T12:19:28;13.15;50.63
68990;DHT22;56046;47.270;11.368;2022-11-15T12:22:03;13.20;49.15
68990;DHT22;56046;47.270;11.368;2022-11-15T12:24:43;13.23;48.87
68990;DHT22;56046;47.270;11.368;2022-11-15T12:29:54;13.23;48.05
68990;DHT22;56046;47.270;11.368;2022-11-15T12:34:48;13.30;48.28
68990;DHT22;56046;47.270;11.368;2022-11-15T12:47:23;13.36;48.01
68990;DHT22;56046;47.270;11.368;2022-11-15T12:49:50;13.40;47.66
68990;DHT22;56046;47.270;11.368;2022-11-15T12:52:16;13.49;47.84
68990;DHT22;56046;47.270;11.368;2022-11-15T13:28:07;13.81;49.24
68990;DHT22;56046;47.270;11.368;2022-11-15T13:30:35;13.67;49.54
68990;DHT22;56046;47.270;11.368;2022-11-15T13:33:08;13.77;48.71
68990;DHT22;56046;47.270;11.368;2022-11-15T13:35:38;14.09;48.91
68990;DHT22;56046;47.270;11.368;2022-11-15T13:38:05;14.21;47.69
68990;DHT22;56046;47.270;11.368;2022-11-15T13:40:37;14.45;47.48
68990;DHT22;56046;47.270;11.368;2022-11-15T13:43:27;14.46;46.14
68990;DHT22;56046;47.270;11.368;2022-11-15T13:46:13;14.43;47.04
68990;DHT22;56046;47.270;11.368;2022-11-15T13:48:40;14.29;44.96
68990;DHT22;56046;47.270;11.368;2022-11-15T13:53:46;14.56;47.29
68990;DHT22;56046;47.270;11.368;2022-11-15T13:56:14;14.24;47.81
68990;DHT22;56046;47.270;11.368;2022-11-15T13:58:40;14.30;48.28
68990;DHT22;56046;47.270;11.368;2022-11-15T14:01:06;14.16;48.76
68990;DHT22;56046;47.270;11.368;2022-11-15T14:03:35;13.98;48.86
68990;DHT22;56046;47.270;11.368;2022-11-15T14:06:12;14.29;42.53
68990;DHT22;56046;47.270;11.368;2022-11-15T14:08:39;14.60;42.03
68990;DHT22;56046;47.270;11.368;2022-11-15T14:11:19;14.40;46.82
68990;DHT22;56046;47.270;11.368;2022-11-15T14:14:17;14.07;49.04
68990;DHT22;56046;47.270;11.368;2022-11-15T14:16:47;14.14;48.24
68990;DHT22;56046;47.270;11.368;2022-11-15T14:19:33;13.67;49.02
68990;DHT22;56046;47.270;11.368;2022-11-15T14:22:22;13.88;48.26
68990;DHT22;56046;47.270;11.368;2022-11-15T14:25:18;13.89;49.02
68990;DHT22;56046;47.270;11.368;2022-11-15T14:30:33;13.85;49.13
68990;DHT22;56046;47.270;11.368;2022-11-15T14:32:58;13.29;49.43
68990;DHT22;56046;47.270;11.368;2022-11-15T14:35:23;13.39;46.67
68990;DHT22;56046;47.270;11.368;2022-11-15T14:37:49;13.32;49.47
68990;DHT22;56046;47.270;11.368;2022-11-15T14:40:20;13.20;47.46
68990;DHT22;56046;47.270;11.368;2022-11-15T14:42:47;13.57;46.50
68990;DHT22;56046;47.270;11.368;2022-11-15T14:45:18;13.60;44.26
68990;DHT22;56046;47.270;11.368;2022-11-15T14:47:44;13.75;44.45
68990;DHT22;56046;47.270;11.368;2022-11-15T14:50:20;13.88;44.96
68990;DHT22;56046;47.270;11.368;2022-11-15T14:52:47;13.91;45.45
68990;DHT22;56046;47.270;11.368;2022-11-15T14:55:32;13.59;47.61
68990;DHT22;56046;47.270;11.368;2022-11-15T14:58:01;13.25;48.73
68990;DHT22;56046;47.270;11.368;2022-11-15T15:00:28;13.08;48.31
68990;DHT22;56046;47.270;11.368;2022-11-15T15:02:54;13.18;45.97
68990;DHT22;56046;47.270;11.368;2022-11-15T15:05:27;13.88;43.43
68990;DHT22;56046;47.270;11.368;2022-11-15T15:07:54;14.25;43.30
68990;DHT22;56046;47.270;11.368;2022-11-15T15:10:20;14.22;43.34
68990;DHT22;56046;47.270;11.368;2022-11-15T15:12:45;14.26;44.62
68990;DHT22;56046;47.270;11.368;2022-11-15T15:15:16;13.98;45.48
68990;DHT22;56046;47.270;11.368;2022-11-15T15:17:43;14.01;43.90
68990;DHT22;56046;47.270;11.368;2022-11-15T15:20:09;14.15;43.69
68990;DHT22;56046;47.270;11.368;2022-11-15T15:22:35;14.25;44.74
68990;DHT22;56046;47.270;11.368;2022-11-15T15:25:01;14.19;43.98
68990;DHT22;56046;47.270;11.368;2022-11-15T15:27:26;14.09;44.00
68990;DHT22;56046;47.270;11.368;2022-11-15T15:29:51;14.24;43.43
68990;DHT22;56046;47.270;11.368;2022-11-15T15:32:17;14.08;44.14
68990;DHT22;56046;47.270;11.368;2022-11-15T15:34:42;14.14;43.61
68990;DHT22;56046;47.270;11.368;2022-11-15T15:39:48;14.25;43.94
68990;DHT22;56046;47.270;11.368;2022-11-15T15:42:13;14.30;43.58
68990;DHT22;56046;47.270;11.368;2022-11-15T15:44:39;14.21;44.45
68990;DHT22;56046;47.270;11.368;2022-11-15T15:47:31;14.18;43.29
68990;DHT22;56046;47.270;11.368;2022-11-15T15:49:55;14.25;44.38
68990;DHT22;56046;47.270;11.368;2022-11-15T15:52:21;14.12;44.54
68990;DHT22;56046;47.270;11.368;2022-11-15T15:54:46;14.12;43.90
68990;DHT22;56046;47.270;11.368;2022-11-15T15:57:13;14.19;44.10
68990;DHT22;56046;47.270;11.368;2022-11-15T15:59:38;14.14;44.69
68990;DHT22;56046;47.270;11.368;2022-11-15T16:02:04;14.15;43.57
68990;DHT22;56046;47.270;11.368;2022-11-15T16:04:30;14.22;43.74
68990;DHT22;56046;47.270;11.368;2022-11-15T16:06:59;14.16;44.29
68990;DHT22;56046;47.270;11.368;2022-11-15T16:09:25;14.12;44.72
68990;DHT22;56046;47.270;11.368;2022-11-15T16:12:23;14.04;45.08
68990;DHT22;56046;47.270;11.368;2022-11-15T16:14:49;14.18;43.44
68990;DHT22;56046;47.270;11.368;2022-11-15T16:17:18;14.22;43.08
68990;DHT22;56046;47.270;11.368;2022-11-15T16:19:45;14.29;43.25
68990;DHT22;56046;47.270;11.368;2022-11-15T16:22:10;14.29;44.08
68990;DHT22;56046;47.270;11.368;2022-11-15T16:24:36;14.24;43.91
68990;DHT22;56046;47.270;11.368;2022-11-15T16:27:01;14.21;44.00
68990;DHT22;56046;47.270;11.368;2022-11-15T16:29:27;14.05;44.49
68990;DHT22;56046;47.270;11.368;2022-11-15T16:31:53;14.05;45.57
68990;DHT22;56046;47.270;11.368;2022-11-15T16:34:19;14.01;44.82
68990;DHT22;56046;47.270;11.368;2022-11-15T16:36:44;13.91;45.01
68990;DHT22;56046;47.270;11.368;2022-11-15T16:39:13;13.95;44.89
68990;DHT22;56046;47.270;11.368;2022-11-15T16:41:40;13.81;45.71
68990;DHT22;56046;47.270;11.368;2022-11-15T16:44:08;13.75;44.94
68990;DHT22;56046;47.270;11.368;2022-11-15T16:46:33;14.02;44.06
68990;DHT22;56046;47.270;11.368;2022-11-15T16:48:59;14.08;44.03
68990;DHT22;56046;47.270;11.368;2022-11-15T16:51:25;14.04;44.58
68990;DHT22;56046;47.270;11.368;2022-11-15T16:53:50;14.01;46.21
68990;DHT22;56046;47.270;11.368;2022-11-15T16:56:26;13.78;46.36
68990;DHT22;56046;47.270;11.368;2022-11-15T16:58:57;13.73;44.78
68990;DHT22;56046;47.270;11.368;2022-11-15T17:01:31;13.77;45.20
68990;DHT22;56046;47.270;11.368;2022-11-15T17:03:57;13.73;45.90
68990;DHT22;56046;47.270;11.368;2022-11-15T17:06:24;13.70;45.87
68990;DHT22;56046;47.270;11.368;2022-11-15T17:08:50;13.54;46.68
68990;DHT22;56046;47.270;11.368;2022-11-15T17:11:20;13.43;46.62
68990;DHT22;56046;47.270;11.368;2022-11-15T17:13:47;13.59;45.56
68990;DHT22;56046;47.270;11.368;2022-11-15T17:16:15;13.51;47.88
68990;DHT22;56046;47.270;11.368;2022-11-15T17:18:42;13.40;47.18
68990;DHT22;56046;47.270;11.368;2022-11-15T17:21:15;13.20;47.84
68990;DHT22;56046;47.270;11.368;2022-11-15T17:23:42;13.22;47.54
68990;DHT22;56046;47.270;11.368;2022-11-15T17:26:09;13.22;47.59
68990;DHT22;56046;47.270;11.368;2022-11-15T17:28:36;13.20;48.03
68990;DHT22;56046;47.270;11.368;2022-11-15T17:31:08;13.27;47.10
68990;DHT22;56046;47.270;11.368;2022-11-15T17:33:34;13.25;47.61
68990;DHT22;56046;47.270;11.368;2022-11-15T17:36:03;13.22;47.13
68990;DHT22;56046;47.270;11.368;2022-11-15T17:38:30;13.30;46.96
68990;DHT22;56046;47.270;11.368;2022-11-15T17:41:02;12.84;51.60
68990;DHT22;56046;47.270;11.368;2022-11-15T17:43:29;12.71;49.59
68990;DHT22;56046;47.270;11.368;2022-11-15T17:45:55;12.80;49.40
68990;DHT22;56046;47.270;11.368;2022-11-15T17:48:21;12.69;50.00
68990;DHT22;56046;47.270;11.368;2022-11-15T17:51:00;12.81;48.42
68990;DHT22;56046;47.270;11.368;2022-11-15T17:53:30;13.02;48.35
68990;DHT22;56046;47.270;11.368;2022-11-15T17:56:00;12.94;48.60
68990;DHT22;56046;47.270;11.368;2022-11-15T17:58:26;12.91;47.93
68990;DHT22;56046;47.270;11.368;2022-11-15T18:00:51;12.98;47.98
68990;DHT22;56046;47.270;11.368;2022-11-15T18:03:17;12.89;48.22
68990;DHT22;56046;47.270;11.368;2022-11-15T18:05:43;12.77;48.82